Pond Cove, Maine
Current Conditions -  °F | °C
As of 6:51 PM on Friday 21 Nov 2014 (Local Time) from KPWM Reporting Station
Clear Clear  
Wind Chill: 19°   Ceiling: Unl
Heat Index: 27°   Visibility: 10mi
Dew Point:   Wind: 8mph
Humidity: 41%   Direction: 270°W
Pressure: 30.28"   Gusts: NA
Location:  43.5903°N, 70.2379°W
Report Text: KPWM 212351Z 27007KT 10SM CLR M03/M14 A3028 RMK AO2 SLP253 T10281144 10017 21039 51033
Loading
Personal Weather Stations






























Interactive Weather Map New forecast layout! Learn more

10-Day Weather Forecast

Advertisements
Track Severe Weather on mobile